Petah Tiqwa, Israel
Current Conditions -  °F | °C
As of 12:00 AM on Monday 24 Nov 2014 (Local Time) from LLSD Reporting Station
Broken Clouds Broken Clouds  
Wind Chill: 57°   Ceiling: 3000
Heat Index: 57°   Visibility: 6mi
Dew Point: 55°   Wind: 8mph
Humidity: 94%   Direction: 140°SE
Pressure: 29.91"   Gusts: NA
Location:  32.09°N, 34.88°E
Report Text: LLSD 232100Z 14007KT 110V170 9999 BKN030 14/13 Q1013 RETS RMKRERA
Loading
Personal Weather Stations






























Interactive Weather Map New forecast layout! Learn more

10-Day Weather Forecast

Advertisements
Track Severe Weather on mobile